Peney — HOGK — position and weather

sailwx.info

Track history (hours):
 
Tides and Currents Weather Stations Pressure Air Temp Water Temp Dewpoint Dewpoint Depression Visibility Wind Speed Wind Dir Waves Ship Positions

Peney

Last reported at 2016-May-31 17:25 UTC. Time now 2016-May-31 18:00 UTC.
Position N 34°10' W 125°43'.

Length 225 m; draft 13.8 m.

Type: Cargo ship. MMSI: 374921000.

Date/timePositionNaut miles runAvg speedWind from/ knotsBaromVisibWave heightAir tempDewpointWater temp
2016-May-31 17:25N 34°10' W 125°43'3913.8
2016-May-31 14:33N 34°44' W 126°08'2814.1
2016-May-31 12:33N 35°08' W 126°26'1614.1
2016-May-31 11:26N 35°21' W 126°36'1214.0
2016-May-31 10:33N 35°32' W 126°44'1414.0
2016-May-31 09:33N 35°44' W 126°53'1414.1
2016-May-31 08:33N 35°56' W 127°02'2813.9
2016-May-31 06:33N 36°19' W 127°21'2713.6
2016-May-31 04:33N 36°43' W 127°39'1313.4
2016-May-31 03:33N 36°54' W 127°47'1313.5
2016-May-31 02:33N 37°06' W 127°56'5413.5
2016-May-30 22:33N 37°51' W 128°32'  
Track history (hours):
 
Tides and Currents Weather Stations Pressure Air Temp Water Temp Dewpoint Dewpoint Depression Visibility Wind Speed Wind Dir Waves Ship Positions

Peney

Last reported at 2016-May-31 17:25 UTC. Time now 2016-May-31 18:00 UTC.
Position N 34°10' W 125°43'.

Length 225 m; draft 13.8 m.

Type: Cargo ship. MMSI: 374921000.

Date/timePositionNaut miles runAvg speedWind from/ knotsBaromVisibWave heightAir tempDewpointWater temp
2016-May-31 17:25N 34°10' W 125°43'3913.8
2016-May-31 14:33N 34°44' W 126°08'2814.1
2016-May-31 12:33N 35°08' W 126°26'1614.1
2016-May-31 11:26N 35°21' W 126°36'1214.0
2016-May-31 10:33N 35°32' W 126°44'1414.0
2016-May-31 09:33N 35°44' W 126°53'1414.1
2016-May-31 08:33N 35°56' W 127°02'2813.9
2016-May-31 06:33N 36°19' W 127°21'2713.6
2016-May-31 04:33N 36°43' W 127°39'1313.4
2016-May-31 03:33N 36°54' W 127°47'1313.5
2016-May-31 02:33N 37°06' W 127°56'5413.5
2016-May-30 22:33N 37°51' W 128°32'  

Dump ship's entire track history